Time;durP1;ratioP1;P1;durP2;ratioP2;P2;SDS_P1;SDS_P2;PMS_P1;PMS_P2;Temp;Humidity;BMP_temperature;BMP_pressure;BME280_temperature;BME280_humidity;BME280_pressure;Samples;Min_cycle;Max_cycle;Signal;HPM_P1;HPM_P2
2022/04/27 00:01:18;;;;;;;16.05;12.88;;;4.30;99.90;;;;;;5102677;27;20031;-80
2022/04/27 00:03:44;;;;;;;16.10;14.35;;;4.20;99.90;;;;;;5121852;27;20043;-80
2022/04/27 00:06:09;;;;;;;15.48;12.70;;;4.10;99.90;;;;;;5086285;27;20075;-80
2022/04/27 00:08:37;;;;;;;14.63;12.00;;;4.00;99.90;;;;;;5085634;27;20126;-80
2022/04/27 00:11:06;;;;;;;14.02;11.50;;;4.00;99.90;;;;;;5117716;27;20047;-80
2022/04/27 00:13:33;;;;;;;14.77;11.65;;;4.00;99.90;;;;;;5123456;27;20043;-80
2022/04/27 00:15:58;;;;;;;15.77;11.27;;;3.90;99.90;;;;;;5104685;27;20035;-80
2022/04/27 00:18:24;;;;;;;11.00;9.93;;;3.90;99.90;;;;;;5089591;27;20623;-80
2022/04/27 00:20:50;;;;;;;12.07;10.80;;;3.80;99.90;;;;;;5105651;27;20054;-80
2022/04/27 00:23:16;;;;;;;14.25;11.32;;;3.80;99.90;;;;;;5071890;27;20043;-80
2022/04/27 00:25:44;;;;;;;15.02;12.43;;;3.80;99.90;;;;;;5105826;27;20257;-80
2022/04/27 00:28:10;;;;;;;15.30;13.40;;;3.70;99.90;;;;;;5089418;27;20147;-80
2022/04/27 00:30:36;;;;;;;15.52;11.60;;;3.70;99.90;;;;;;5105501;27;20066;-80
2022/04/27 00:33:04;;;;;;;16.10;14.50;;;3.70;99.90;;;;;;5103815;27;20090;-80
2022/04/27 00:35:30;;;;;;;18.92;17.08;;;3.70;99.90;;;;;;5123194;27;20058;-80
2022/04/27 00:37:56;;;;;;;18.92;15.85;;;3.70;99.90;;;;;;5124322;27;20474;-80
2022/04/27 00:40:21;;;;;;;15.00;11.73;;;3.60;99.90;;;;;;5123146;27;20406;-80
2022/04/27 00:42:47;;;;;;;14.88;13.23;;;3.60;99.90;;;;;;5122676;27;20070;-80
2022/04/27 00:45:13;;;;;;;17.13;13.32;;;3.60;99.90;;;;;;5066301;27;20538;-80
2022/04/27 00:47:39;;;;;;;19.52;16.88;;;3.60;99.90;;;;;;5072493;27;20051;-80
2022/04/27 00:50:05;;;;;;;11.60;10.40;;;3.60;99.90;;;;;;5122284;27;20225;-80
2022/04/27 00:52:32;;;;;;;13.85;12.43;;;3.60;99.90;;;;;;5123464;27;20035;-81
2022/04/27 00:55:01;;;;;;;15.15;13.55;;;3.60;99.90;;;;;;5090569;27;20563;-80
2022/04/27 00:57:27;;;;;;;15.38;12.82;;;3.70;99.90;;;;;;5085156;27;20043;-80
2022/04/27 00:59:54;;;;;;;18.05;14.48;;;3.70;99.90;;;;;;5101732;28;20054;-80
2022/04/27 01:02:20;;;;;;;13.97;12.13;;;3.70;99.90;;;;;;5086380;27;20069;-80
2022/04/27 01:04:47;;;;;;;17.03;12.97;;;3.70;99.90;;;;;;5099712;27;20170;-80
2022/04/27 01:07:13;;;;;;;14.13;12.65;;;3.80;99.90;;;;;;5120138;27;20059;-81
2022/04/27 01:09:40;;;;;;;13.50;12.10;;;3.80;99.90;;;;;;5118218;27;20058;-80
2022/04/27 01:12:07;;;;;;;14.00;12.63;;;3.70;99.90;;;;;;5117897;27;20047;-80
2022/04/27 01:14:43;;;;;;;16.67;13.00;;;3.70;99.90;;;;;;5120187;27;20505;-80
2022/04/27 01:17:09;;;;;;;17.40;12.27;;;3.70;99.90;;;;;;5098627;27;20055;-80
2022/04/27 01:19:35;;;;;;;13.70;12.27;;;3.70;99.90;;;;;;5122009;27;20050;-80
2022/04/27 01:22:03;;;;;;;15.70;12.27;;;3.70;99.90;;;;;;5104706;27;20464;-80
2022/04/27 01:24:30;;;;;;;15.35;12.60;;;3.70;99.90;;;;;;5104435;27;20039;-80
2022/04/27 01:26:56;;;;;;;19.80;13.10;;;3.70;99.90;;;;;;5115594;27;20557;-80
2022/04/27 01:29:22;;;;;;;16.45;14.70;;;3.80;99.90;;;;;;5107268;27;20036;-85
2022/04/27 01:31:53;;;;;;;15.45;12.35;;;3.80;99.90;;;;;;5085175;27;20071;-80
2022/04/27 01:34:19;;;;;;;14.70;12.70;;;3.90;99.90;;;;;;5086598;28;20228;-80
2022/04/27 01:36:45;;;;;;;13.82;12.35;;;3.90;99.90;;;;;;5088599;28;20448;-80
2022/04/27 01:39:11;;;;;;;16.33;14.60;;;3.90;99.90;;;;;;5089741;28;20294;-80
2022/04/27 01:41:37;;;;;;;14.40;12.57;;;4.00;99.90;;;;;;5100633;28;20420;-84
2022/04/27 01:44:06;;;;;;;13.57;11.82;;;4.00;99.90;;;;;;5057556;28;20059;-84
2022/04/27 01:46:32;;;;;;;12.77;11.55;;;4.00;99.90;;;;;;5104009;27;20075;-79
2022/04/27 01:48:58;;;;;;;14.90;12.15;;;4.10;99.90;;;;;;5097812;27;20037;-80
2022/04/27 01:54:15;;;;;;;14.00;12.38;;;4.10;99.90;;;;;;5089703;28;20043;-79
2022/04/27 01:56:48;;;;;;;18.00;14.20;;;4.20;99.90;;;;;;5080379;28;20063;-79
2022/04/27 01:59:15;;;;;;;14.70;13.20;;;4.30;99.90;;;;;;5108717;28;20450;-79
2022/04/27 02:01:41;;;;;;;15.13;13.52;;;4.40;99.90;;;;;;5083703;28;20071;-79
2022/04/27 02:04:08;;;;;;;20.35;16.48;;;4.40;99.90;;;;;;5114009;28;20470;-79
2022/04/27 02:06:37;;;;;;;18.15;16.27;;;4.40;99.90;;;;;;5085048;28;20108;-80
2022/04/27 02:09:04;;;;;;;18.75;14.70;;;4.40;99.90;;;;;;5094856;28;20047;-79
2022/04/27 02:11:31;;;;;;;15.60;13.93;;;4.50;99.90;;;;;;5074406;28;20064;-79
2022/04/27 02:13:57;;;;;;;15.02;13.32;;;4.50;99.90;;;;;;5078985;28;20047;-79
2022/04/27 02:16:23;;;;;;;18.60;14.52;;;4.50;99.90;;;;;;5109241;28;20303;-79
2022/04/27 02:18:49;;;;;;;16.52;14.07;;;4.60;99.90;;;;;;5111655;28;20055;-79
2022/04/27 02:21:16;;;;;;;19.38;16.98;;;4.60;99.90;;;;;;5091171;28;20048;-80
2022/04/27 02:23:42;;;;;;;20.55;17.58;;;4.80;99.90;;;;;;5110507;28;20374;-79
2022/04/27 02:26:08;;;;;;;19.80;17.65;;;4.80;99.90;;;;;;5084200;27;20047;-79
2022/04/27 02:28:34;;;;;;;19.35;17.42;;;4.80;99.90;;;;;;5124458;27;20039;-79
2022/04/27 02:30:59;;;;;;;21.75;18.45;;;4.80;99.90;;;;;;5123296;27;20564;-81
2022/04/27 02:33:25;;;;;;;18.10;16.20;;;4.80;99.90;;;;;;5106797;27;20042;-80
2022/04/27 02:35:52;;;;;;;20.40;17.00;;;4.80;99.90;;;;;;5124134;27;20497;-79
2022/04/27 02:38:18;;;;;;;20.92;18.27;;;4.80;99.90;;;;;;5105786;27;20043;-85
2022/04/27 02:40:44;;;;;;;23.52;19.77;;;4.90;99.90;;;;;;5123583;27;20289;-85
2022/04/27 02:43:09;;;;;;;22.25;17.67;;;4.90;99.90;;;;;;5086907;27;20535;-81
2022/04/27 02:45:35;;;;;;;18.33;16.40;;;4.90;99.90;;;;;;5089108;27;20371;-85
2022/04/27 02:48:01;;;;;;;17.35;15.25;;;4.90;99.90;;;;;;5110172;27;20050;-85
2022/04/27 02:53:11;;;;;;;18.60;15.77;;;5.00;99.90;;;;;;5115725;27;20038;-85
2022/04/27 02:55:37;;;;;;;20.05;17.88;;;5.00;99.90;;;;;;5113422;27;20107;-80
2022/04/27 02:58:03;;;;;;;21.17;18.88;;;5.00;99.90;;;;;;5112716;27;20058;-80
2022/04/27 03:00:30;;;;;;;23.17;19.73;;;5.00;99.90;;;;;;5111833;27;20037;-80
2022/04/27 03:02:59;;;;;;;21.02;18.77;;;5.00;99.90;;;;;;5078764;27;20381;-80
2022/04/27 03:05:25;;;;;;;21.73;19.23;;;5.00;99.90;;;;;;5129295;27;20733;-80
2022/04/27 03:07:51;;;;;;;21.67;18.90;;;5.00;99.90;;;;;;5096995;27;20053;-80
2022/04/27 03:10:17;;;;;;;20.92;18.67;;;5.00;99.90;;;;;;5076380;27;20039;-80
2022/04/27 03:12:43;;;;;;;20.40;18.33;;;5.00;99.90;;;;;;5128264;27;20051;-80
2022/04/27 03:15:09;;;;;;;20.90;18.67;;;5.00;99.90;;;;;;5130015;27;20375;-80
2022/04/27 03:17:35;;;;;;;18.63;16.63;;;5.00;99.90;;;;;;5110221;27;20113;-80
2022/04/27 03:20:01;;;;;;;19.30;16.02;;;5.00;99.90;;;;;;5126878;27;20133;-80
2022/04/27 03:22:26;;;;;;;20.25;18.02;;;5.20;99.90;;;;;;5112465;27;20043;-80
2022/04/27 03:24:52;;;;;;;22.05;19.75;;;5.10;99.90;;;;;;5130040;27;20039;-80
2022/04/27 03:27:18;;;;;;;21.08;18.90;;;5.10;99.90;;;;;;5094424;27;20050;-80
2022/04/27 03:29:44;;;;;;;17.75;16.05;;;5.10;99.90;;;;;;5112137;27;20057;-80
2022/04/27 03:32:10;;;;;;;29.17;21.50;;;5.10;99.90;;;;;;5095049;27;20441;-80
2022/04/27 03:34:36;;;;;;;25.13;20.50;;;5.10;99.90;;;;;;5114974;27;20043;-85
2022/04/27 03:37:02;;;;;;;18.35;16.42;;;5.10;99.90;;;;;;5094768;27;20067;-81
2022/04/27 03:39:28;;;;;;;18.15;16.30;;;5.10;99.90;;;;;;5096134;27;20038;-80
2022/04/27 03:41:54;;;;;;;19.42;16.30;;;5.10;99.90;;;;;;5095228;27;20492;-81
2022/04/27 03:44:20;;;;;;;18.77;16.80;;;5.10;99.90;;;;;;5110509;27;20034;-81
2022/04/27 03:46:45;;;;;;;21.70;19.08;;;5.20;99.90;;;;;;5128677;27;20034;-80
2022/04/27 03:49:11;;;;;;;17.80;16.08;;;5.20;99.90;;;;;;5127432;27;20049;-80
2022/04/27 03:51:37;;;;;;;17.73;15.93;;;5.20;99.90;;;;;;5125214;27;20060;-81
2022/04/27 03:54:03;;;;;;;19.25;17.27;;;5.20;99.90;;;;;;5126436;27;20509;-80
2022/04/27 03:56:29;;;;;;;18.15;16.38;;;5.40;99.90;;;;;;5110580;27;20070;-80
2022/04/27 03:58:55;;;;;;;22.90;20.15;;;5.30;99.90;;;;;;5073308;27;20650;-78
2022/04/27 04:01:20;;;;;;;21.80;19.58;;;5.30;99.90;;;;;;5102902;27;20047;-81
2022/04/27 04:03:46;;;;;;;18.88;16.92;;;5.30;99.90;;;;;;5112504;27;20054;-80
2022/04/27 04:06:12;;;;;;;19.58;17.30;;;5.30;99.90;;;;;;5079161;27;20039;-80
2022/04/27 04:08:38;;;;;;;17.77;16.00;;;5.40;99.90;;;;;;5107298;27;20043;-80
2022/04/27 04:11:04;;;;;;;20.38;16.08;;;5.40;99.90;;;;;;5095232;27;20509;-84
2022/04/27 04:13:30;;;;;;;20.73;18.63;;;5.40;99.90;;;;;;5090028;27;20077;-80
2022/04/27 04:15:55;;;;;;;20.35;18.17;;;5.50;99.90;;;;;;5099780;27;20054;-80
2022/04/27 04:18:21;;;;;;;18.95;16.95;;;5.50;99.90;;;;;;5125101;27;20046;-80
2022/04/27 04:20:47;;;;;;;23.45;18.80;;;5.50;99.90;;;;;;5102607;27;20190;-80
2022/04/27 04:23:13;;;;;;;18.30;16.50;;;5.50;99.90;;;;;;5120625;27;20047;-80
2022/04/27 04:28:32;;;;;;;19.65;17.58;;;5.50;99.90;;;;;;5105133;27;20051;-81
2022/04/27 04:31:03;;;;;;;20.67;18.67;;;5.60;99.90;;;;;;5072544;27;20118;-81
2022/04/27 04:33:29;;;;;;;17.95;16.08;;;5.60;99.90;;;;;;5104826;27;20047;-80
2022/04/27 04:35:59;;;;;;;16.88;15.23;;;5.60;99.90;;;;;;5121263;27;20130;-81
2022/04/27 04:38:25;;;;;;;17.90;16.05;;;5.70;99.90;;;;;;5105219;27;20335;-81
2022/04/27 04:40:52;;;;;;;20.73;18.50;;;5.70;99.90;;;;;;5122918;27;20065;-81
2022/04/27 04:43:19;;;;;;;20.55;18.13;;;5.70;99.90;;;;;;5067842;28;20050;-80
2022/04/27 04:45:44;;;;;;;19.63;17.52;;;5.80;99.90;;;;;;5105978;27;20162;-81
2022/04/27 04:48:11;;;;;;;20.23;18.30;;;5.80;99.90;;;;;;5123611;27;20045;-81
2022/04/27 04:50:37;;;;;;;21.30;18.70;;;5.80;99.90;;;;;;5104819;27;20552;-80
2022/04/27 04:53:06;;;;;;;21.67;18.17;;;5.80;99.90;;;;;;5086509;27;20465;-81
2022/04/27 04:55:33;;;;;;;20.02;17.77;;;5.90;99.90;;;;;;5118339;27;20391;-81
2022/04/27 04:57:58;;;;;;;20.55;18.38;;;5.90;99.90;;;;;;5121427;27;20473;-80
2022/04/27 05:00:25;;;;;;;18.88;16.88;;;5.90;99.90;;;;;;5117278;27;20050;-81
2022/04/27 05:02:51;;;;;;;21.52;18.80;;;5.90;99.90;;;;;;5121627;27;20039;-81
2022/04/27 05:05:17;;;;;;;20.15;17.23;;;5.90;99.90;;;;;;5109099;27;20076;-80
2022/04/27 05:07:43;;;;;;;20.02;17.75;;;6.00;99.90;;;;;;5122129;27;20502;-79
2022/04/27 05:10:10;;;;;;;19.77;17.63;;;6.00;99.90;;;;;;5100816;28;20043;-80
2022/04/27 05:12:36;;;;;;;18.27;16.45;;;6.00;99.90;;;;;;5121137;27;20096;-81
2022/04/27 05:15:06;;;;;;;18.70;15.77;;;6.10;99.90;;;;;;5103350;27;20068;-81
2022/04/27 05:17:32;;;;;;;18.83;16.00;;;6.10;99.90;;;;;;5083804;28;20047;-80
2022/04/27 05:19:58;;;;;;;19.38;15.77;;;6.20;99.90;;;;;;5087393;27;20489;-81
2022/04/27 05:22:24;;;;;;;21.52;18.23;;;6.20;99.90;;;;;;5103359;27;20041;-80
2022/04/27 05:24:50;;;;;;;20.02;17.73;;;6.30;99.90;;;;;;5105268;27;20038;-81
2022/04/27 05:27:17;;;;;;;18.15;16.13;;;6.30;99.90;;;;;;5123143;27;20126;-81
2022/04/27 05:32:27;;;;;;;19.90;17.90;;;6.40;99.90;;;;;;5105280;27;20262;-84
2022/04/27 05:34:53;;;;;;;17.90;15.88;;;6.40;99.90;;;;;;5104421;27;20072;-84
2022/04/27 05:37:20;;;;;;;17.73;15.77;;;6.40;99.90;;;;;;5088245;27;20050;-83
2022/04/27 05:39:49;;;;;;;17.55;15.20;;;6.50;99.90;;;;;;5090195;27;20250;-84
2022/04/27 05:42:15;;;;;;;15.38;13.88;;;6.50;99.90;;;;;;5123870;27;20042;-84
2022/04/27 05:44:40;;;;;;;16.05;14.00;;;6.50;99.90;;;;;;5121547;27;20042;-83
2022/04/27 05:47:06;;;;;;;18.30;14.32;;;6.60;99.90;;;;;;5088835;27;20039;-83
2022/04/27 05:49:35;;;;;;;16.58;14.80;;;6.60;99.90;;;;;;5096367;27;20290;-84
2022/04/27 05:52:01;;;;;;;18.27;15.75;;;6.70;99.90;;;;;;5070104;27;20123;-83
2022/04/27 05:54:27;;;;;;;20.90;15.82;;;6.70;99.90;;;;;;5070723;27;20047;-81
2022/04/27 05:56:53;;;;;;;16.70;14.38;;;6.80;99.90;;;;;;5101906;27;20058;-81
2022/04/27 05:59:20;;;;;;;19.15;17.10;;;6.80;99.90;;;;;;5124341;27;20500;-80
2022/04/27 06:01:46;;;;;;;15.88;13.38;;;6.80;99.90;;;;;;5068747;27;20057;-80
2022/04/27 06:04:12;;;;;;;16.20;12.88;;;6.90;99.90;;;;;;5086985;27;20040;-81
2022/04/27 06:06:38;;;;;;;14.02;12.52;;;6.90;99.90;;;;;;5091310;27;20053;-80
2022/04/27 06:09:04;;;;;;;17.98;13.27;;;7.00;99.90;;;;;;5122488;27;20718;-81
2022/04/27 06:11:30;;;;;;;17.33;14.18;;;7.00;99.90;;;;;;5089327;27;20042;-80
2022/04/27 06:13:56;;;;;;;14.38;12.93;;;7.10;99.90;;;;;;5085058;27;20058;-80
2022/04/27 06:16:24;;;;;;;16.20;14.50;;;7.10;99.90;;;;;;5082878;27;20042;-81
2022/04/27 06:18:50;;;;;;;16.05;14.25;;;7.20;99.90;;;;;;5109477;27;20049;-80
2022/04/27 06:21:19;;;;;;;16.02;13.52;;;7.20;99.90;;;;;;5091423;27;20035;-81
2022/04/27 06:23:46;;;;;;;14.27;11.65;;;7.30;99.90;;;;;;5123516;27;20407;-81
2022/04/27 06:26:11;;;;;;;13.13;11.45;;;7.40;99.90;;;;;;5091063;27;20070;-80
2022/04/27 06:28:38;;;;;;;20.52;11.18;;;7.40;99.90;;;;;;5113412;27;20039;-80
2022/04/27 06:31:07;;;;;;;14.57;11.50;;;7.50;99.90;;;;;;5097881;27;20050;-80
2022/04/27 06:33:33;;;;;;;12.13;10.77;;;7.40;99.90;;;;;;5131861;27;20054;-81
2022/04/27 06:35:58;;;;;;;10.65;9.60;;;7.60;99.90;;;;;;5095480;27;20047;-80
2022/04/27 06:38:24;;;;;;;10.85;8.98;;;7.70;99.90;;;;;;5128598;27;20074;-81
2022/04/27 06:40:50;;;;;;;10.10;8.60;;;7.70;99.90;;;;;;5110468;27;20078;-81
2022/04/27 06:43:16;;;;;;;10.27;8.20;;;7.80;99.90;;;;;;5129133;27;20054;-81
2022/04/27 06:45:42;;;;;;;11.98;8.00;;;7.80;99.90;;;;;;5096704;27;20046;-81
2022/04/27 06:48:08;;;;;;;10.13;7.93;;;7.90;99.90;;;;;;5130392;27;20821;-81
2022/04/27 06:50:34;;;;;;;8.50;7.15;;;8.00;99.90;;;;;;5113736;27;20035;-80
2022/04/27 06:52:59;;;;;;;9.85;6.75;;;8.10;99.90;;;;;;5112738;27;20050;-81
2022/04/27 06:55:26;;;;;;;10.40;6.72;;;8.10;99.90;;;;;;5096005;27;20456;-81
2022/04/27 06:57:53;;;;;;;9.07;6.72;;;8.20;99.90;;;;;;5108210;27;20074;-81
2022/04/27 07:00:19;;;;;;;8.32;6.85;;;8.30;99.90;;;;;;5096433;27;20103;-81
2022/04/27 07:02:45;;;;;;;9.35;7.15;;;8.30;99.90;;;;;;5097722;27;20089;-81
2022/04/27 07:05:17;;;;;;;10.55;8.00;;;8.30;99.90;;;;;;5110938;27;20039;-81
2022/04/27 07:07:44;;;;;;;10.30;7.18;;;8.40;99.90;;;;;;5114757;27;20477;-81
2022/04/27 07:10:11;;;;;;;11.07;6.97;;;8.50;99.90;;;;;;5130085;27;20047;-81
2022/04/27 07:12:37;;;;;;;9.02;7.10;;;8.50;99.90;;;;;;5110865;27;20104;-81
2022/04/27 07:15:06;;;;;;;10.95;7.00;;;8.60;99.90;;;;;;5111941;27;20675;-81
2022/04/27 07:17:35;;;;;;;8.25;7.05;;;8.70;99.90;;;;;;5110540;27;20165;-81
2022/04/27 07:20:00;;;;;;;6.72;4.55;;;8.70;99.90;;;;;;5094834;27;20489;-81
2022/04/27 07:22:26;;;;;;;7.25;4.65;;;8.80;99.90;;;;;;5129159;27;20053;-81
2022/04/27 07:24:52;;;;;;;5.55;3.08;;;8.90;99.90;;;;;;5111815;27;20554;-81
2022/04/27 07:27:18;;;;;;;8.40;3.72;;;9.00;99.90;;;;;;5092293;27;20109;-81
2022/04/27 07:29:44;;;;;;;6.30;2.67;;;9.00;99.90;;;;;;5128789;27;20081;-81
2022/04/27 07:32:10;;;;;;;5.05;2.50;;;9.10;99.90;;;;;;5110518;27;20074;-81
2022/04/27 07:34:36;;;;;;;4.15;2.55;;;9.10;99.90;;;;;;5146384;27;20089;-80
2022/04/27 07:37:04;;;;;;;6.35;1.92;;;9.20;99.90;;;;;;5128918;27;20162;-81
2022/04/27 07:39:30;;;;;;;4.43;2.20;;;9.20;99.90;;;;;;5128477;27;20635;-81
2022/04/27 07:41:56;;;;;;;3.75;1.80;;;9.30;99.90;;;;;;5109634;27;20104;-82
2022/04/27 07:44:22;;;;;;;4.38;2.03;;;9.30;99.90;;;;;;5126063;27;20037;-82
2022/04/27 07:46:48;;;;;;;3.38;1.83;;;9.30;99.90;;;;;;5146151;27;20101;-81
2022/04/27 07:49:16;;;;;;;8.93;2.20;;;9.40;99.90;;;;;;5110000;27;20789;-81
2022/04/27 07:51:41;;;;;;;4.57;2.00;;;9.40;99.90;;;;;;5111277;27;20047;-81
2022/04/27 07:54:07;;;;;;;5.38;2.42;;;9.50;99.90;;;;;;5127440;27;20109;-81
2022/04/27 07:56:33;;;;;;;4.45;2.45;;;9.50;99.90;;;;;;5107581;27;20933;-81
2022/04/27 07:58:59;;;;;;;4.47;2.15;;;9.60;99.90;;;;;;5109578;27;20072;-80
2022/04/27 08:01:25;;;;;;;5.32;1.92;;;9.60;99.90;;;;;;5108164;27;20138;-81
2022/04/27 08:03:50;;;;;;;4.43;2.45;;;9.70;99.90;;;;;;5110123;27;20043;-82
2022/04/27 08:06:16;;;;;;;4.13;1.92;;;9.70;99.90;;;;;;5110236;27;20078;-82
2022/04/27 08:08:42;;;;;;;6.03;2.08;;;9.80;99.90;;;;;;5127077;27;20508;-81
2022/04/27 08:11:10;;;;;;;7.15;3.20;;;9.80;99.90;;;;;;5108962;27;20079;-81
2022/04/27 08:13:35;;;;;;;5.03;2.10;;;9.80;99.90;;;;;;5104313;27;20805;-81
2022/04/27 08:16:01;;;;;;;5.05;2.28;;;9.80;99.90;;;;;;5093196;27;20054;-82
2022/04/27 08:18:27;;;;;;;5.32;2.10;;;9.90;99.90;;;;;;5093551;27;20050;-83
2022/04/27 08:23:40;;;;;;;6.20;2.28;;;10.00;99.90;;;;;;5097094;27;20055;-82
2022/04/27 08:26:07;;;;;;;3.90;1.85;;;10.00;99.90;;;;;;5099254;27;440071;-81
2022/04/27 08:28:34;;;;;;;4.45;2.17;;;10.00;99.00;;;;;;5101828;27;20051;-82
2022/04/27 08:31:00;;;;;;;6.00;3.22;;;10.00;99.90;;;;;;5106719;27;20079;-82
2022/04/27 08:33:27;;;;;;;5.07;2.20;;;10.10;99.90;;;;;;5105192;27;20202;-81
2022/04/27 08:35:57;;;;;;;5.40;1.88;;;10.20;99.90;;;;;;5106504;27;20046;-81
2022/04/27 08:38:24;;;;;;;5.15;2.47;;;10.30;99.90;;;;;;5099527;27;20055;-82
2022/04/27 08:40:49;;;;;;;3.95;2.30;;;10.30;98.90;;;;;;5082620;27;20043;-83
2022/04/27 08:43:16;;;;;;;5.95;2.47;;;10.40;98.40;;;;;;5085905;28;20050;-82
2022/04/27 08:45:44;;;;;;;4.60;2.30;;;10.50;97.80;;;;;;5093076;27;20168;-82
2022/04/27 08:48:12;;;;;;;4.63;2.08;;;10.50;98.00;;;;;;5114033;27;20068;-83
2022/04/27 08:50:39;;;;;;;4.03;2.05;;;10.60;98.50;;;;;;5103073;27;20048;-82
2022/04/27 08:53:05;;;;;;;5.28;2.38;;;10.70;97.80;;;;;;5121069;27;20431;-81
2022/04/27 08:55:31;;;;;;;7.68;2.50;;;10.80;97.30;;;;;;5117006;27;20108;-82
2022/04/27 08:58:11;;;;;;;5.00;2.28;;;10.80;96.70;;;;;;5123902;27;20401;-82
2022/04/27 09:00:38;;;;;;;6.33;2.00;;;10.80;96.30;;;;;;5104828;27;20054;-82
2022/04/27 09:03:23;;;;;;;5.40;2.00;;;10.80;97.30;;;;;;5123574;27;20516;-83
2022/04/27 09:06:03;;;;;;;4.57;2.20;;;10.90;94.50;;;;;;5116521;27;20493;-82
2022/04/27 09:08:48;;;;;;;8.52;2.60;;;10.90;95.30;;;;;;5103311;27;20058;-82
2022/04/27 09:11:15;;;;;;;6.75;2.03;;;11.00;93.10;;;;;;5102302;27;20111;-82
2022/04/27 09:13:53;;;;;;;17.13;7.20;;;10.90;93.90;;;;;;5117860;27;20431;-82
2022/04/27 09:16:22;;;;;;;7.72;2.97;;;10.90;94.70;;;;;;5096448;27;20074;-83
2022/04/27 09:21:59;;;;;;;5.55;2.40;;;10.90;92.70;;;;;;5111955;27;20054;-83
2022/04/27 09:24:26;;;;;;;6.65;2.08;;;10.90;95.50;;;;;;5101486;27;20725;-82
2022/04/27 09:27:11;;;;;;;7.43;2.25;;;11.00;96.70;;;;;;5081701;27;20133;-82
2022/04/27 09:29:37;;;;;;;7.25;1.98;;;11.10;92.90;;;;;;5098882;27;20104;-82
2022/04/27 09:32:04;;;;;;;5.65;2.13;;;11.10;94.40;;;;;;5087327;27;20048;-82
2022/04/27 09:34:46;;;;;;;7.55;2.72;;;11.10;94.60;;;;;;5089350;27;20374;-82
2022/04/27 09:37:14;;;;;;;4.97;2.10;;;11.20;95.40;;;;;;5123172;27;20057;-82
2022/04/27 09:39:42;;;;;;;5.50;2.17;;;11.20;94.30;;;;;;5102150;27;20565;-82
2022/04/27 09:42:12;;;;;;;4.93;2.00;;;11.20;95.70;;;;;;5118160;27;20047;-86
2022/04/27 09:44:39;;;;;;;4.40;2.20;;;11.30;96.00;;;;;;5103731;27;20069;-82
2022/04/27 09:47:07;;;;;;;4.47;2.03;;;11.40;95.80;;;;;;5114407;27;20190;-86
2022/04/27 09:49:37;;;;;;;6.70;2.53;;;11.50;95.00;;;;;;5128195;27;20398;-85
2022/04/27 09:52:07;;;;;;;5.60;2.33;;;11.50;94.90;;;;;;5112599;27;20152;-86
2022/04/27 09:54:36;;;;;;;6.72;2.15;;;11.50;92.30;;;;;;5107183;27;20043;-83
2022/04/27 09:57:08;;;;;;;7.47;2.72;;;11.50;91.20;;;;;;5113435;27;20043;-84
2022/04/27 09:59:36;;;;;;;7.93;2.50;;;11.50;94.20;;;;;;5107076;27;20202;-83
2022/04/27 10:02:08;;;;;;;5.57;2.20;;;11.50;93.30;;;;;;5115504;27;20058;-83
2022/04/27 10:04:35;;;;;;;6.15;2.40;;;11.50;92.00;;;;;;5107997;27;20059;-82
2022/04/27 10:07:02;;;;;;;6.20;2.35;;;11.40;92.90;;;;;;5094654;28;20043;-82
2022/04/27 10:09:29;;;;;;;6.05;2.30;;;11.40;92.60;;;;;;5090164;28;20044;-82
2022/04/27 10:11:56;;;;;;;6.88;3.08;;;11.50;94.10;;;;;;5110310;27;20035;-81
2022/04/27 10:14:22;;;;;;;7.63;3.63;;;11.50;91.60;;;;;;5102718;28;20054;-83
2022/04/27 10:16:50;;;;;;;8.07;3.03;;;11.50;91.50;;;;;;5123394;28;20089;-83
2022/04/27 10:19:17;;;;;;;7.40;2.53;;;11.50;92.40;;;;;;5093915;28;20048;-83
2022/04/27 10:21:56;;;;;;;6.82;2.13;;;11.50;92.20;;;;;;5102214;28;20054;-83
2022/04/27 10:24:34;;;;;;;5.80;2.90;;;11.50;92.30;;;;;;5093660;28;20502;-82
2022/04/27 10:27:36;;;;;;;6.90;3.40;;;11.40;92.00;;;;;;5095494;28;20044;-83
2022/04/27 10:30:10;;;;;;;7.50;2.60;;;11.40;91.60;;;;;;5104790;28;20036;-84
2022/04/27 10:32:44;;;;;;;6.75;2.60;;;11.40;91.70;;;;;;5100964;28;20552;-83
2022/04/27 10:35:14;;;;;;;6.50;2.65;;;11.40;91.20;;;;;;5123415;28;20047;-82
2022/04/27 10:38:02;;;;;;;6.80;2.45;;;11.40;91.50;;;;;;5094572;28;20466;-83
2022/04/27 10:40:34;;;;;;;;;;;11.40;90.50;;;;;;5087007;28;20803;-83
2022/04/27 10:43:07;;;;;;;6.85;2.50;;;11.40;90.90;;;;;;5096311;28;19920;-82
2022/04/27 10:45:35;;;;;;;7.80;2.88;;;11.40;91.50;;;;;;5104092;28;20162;-82
2022/04/27 10:48:03;;;;;;;8.20;3.72;;;11.40;91.60;;;;;;5081472;27;20043;-83
2022/04/27 10:50:33;;;;;;;3.95;2.60;;;11.50;91.80;;;;;;5103473;27;20074;-83
2022/04/27 10:53:26;;;;;;;8.63;3.30;;;11.60;90.70;;;;;;5105756;28;20290;-82
2022/04/27 10:55:55;;;;;;;7.60;3.80;;;11.60;91.60;;;;;;5113157;28;21019;-83
2022/04/27 10:58:33;;;;;;;6.28;2.88;;;11.70;91.80;;;;;;5086055;28;20150;-83
2022/04/27 11:00:58;;;;;;;7.20;3.22;;;11.70;92.20;;;;;;5111360;28;20107;-81
2022/04/27 11:03:36;;;;;;;5.72;3.28;;;11.70;92.30;;;;;;5103119;28;20051;-82
2022/04/27 11:06:04;;;;;;;6.18;2.70;;;11.70;90.90;;;;;;5087672;27;20549;-82
2022/04/27 11:08:36;;;;;;;5.90;2.60;;;11.70;90.10;;;;;;5099641;28;20070;-82
2022/04/27 11:11:08;;;;;;;8.63;2.90;;;11.80;91.50;;;;;;5115580;27;20043;-82
2022/04/27 11:13:38;;;;;;;4.72;2.58;;;11.80;90.30;;;;;;5101409;28;20292;-82
2022/04/27 11:16:11;;;;;;;8.85;2.78;;;11.80;90.70;;;;;;5126284;27;20062;-83
2022/04/27 11:18:57;;;;;;;6.53;2.97;;;11.80;91.00;;;;;;5120244;27;20533;-86
2022/04/27 11:21:30;;;;;;;10.52;3.22;;;11.90;90.00;;;;;;5082628;28;20074;-86
2022/04/27 11:24:01;;;;;;;8.93;3.10;;;11.90;90.10;;;;;;5116174;27;20064;-81
2022/04/27 11:26:27;;;;;;;9.13;3.75;;;11.90;90.80;;;;;;5095842;28;20052;-83
2022/04/27 11:28:54;;;;;;;8.32;3.67;;;11.90;93.60;;;;;;5089440;28;20087;-83
2022/04/27 11:31:20;;;;;;;6.82;3.13;;;12.00;91.50;;;;;;5089159;28;20047;-83
2022/04/27 11:33:47;;;;;;;9.98;3.83;;;12.00;91.70;;;;;;5121554;27;20071;-83
2022/04/27 11:36:24;;;;;;;9.80;3.55;;;12.00;90.40;;;;;;5106779;27;20079;-83
2022/04/27 11:38:51;;;;;;;9.15;3.28;;;11.80;91.20;;;;;;5106253;28;20051;-83
2022/04/27 11:41:19;;;;;;;9.70;3.28;;;11.90;91.10;;;;;;5091783;27;20043;-83
2022/04/27 11:43:46;;;;;;;6.82;3.42;;;11.90;91.30;;;;;;5093780;28;20501;-83
2022/04/27 11:46:12;;;;;;;8.07;3.40;;;12.00;91.80;;;;;;5073126;28;20058;-83
2022/04/27 11:48:39;;;;;;;5.95;3.30;;;12.00;91.20;;;;;;5108481;27;20047;-83
2022/04/27 11:51:08;;;;;;;10.93;3.83;;;12.00;91.70;;;;;;5090284;28;20051;-82
2022/04/27 11:53:48;;;;;;;7.32;2.85;;;12.10;91.80;;;;;;5109245;27;20058;-82
2022/04/27 11:56:15;;;;;;;7.95;3.20;;;12.10;91.50;;;;;;5110189;27;20111;-82
2022/04/27 11:58:41;;;;;;;9.18;3.60;;;12.20;91.90;;;;;;5122156;27;20047;-83
2022/04/27 12:01:10;;;;;;;9.65;3.75;;;12.20;93.30;;;;;;5093294;27;20047;-82
2022/04/27 12:03:41;;;;;;;9.60;3.40;;;12.30;92.20;;;;;;5120983;27;20493;-83
2022/04/27 12:06:07;;;;;;;;;;;12.30;92.50;;;;;;5104472;27;20625;-83
2022/04/27 12:08:41;;;;;;;7.13;3.53;;;12.30;92.30;;;;;;5100269;28;19993;-83
2022/04/27 12:11:07;;;;;;;9.02;3.40;;;12.30;92.50;;;;;;5123034;27;20457;-83
2022/04/27 12:13:34;;;;;;;8.18;3.42;;;12.30;93.10;;;;;;5090543;27;20361;-81
2022/04/27 12:16:00;;;;;;;9.60;3.30;;;12.30;92.80;;;;;;5109940;27;20043;-82
2022/04/27 12:18:27;;;;;;;7.78;3.38;;;12.40;93.30;;;;;;5089542;27;20043;-82
2022/04/27 12:20:57;;;;;;;8.48;3.28;;;12.40;92.20;;;;;;5125966;27;20081;-82
2022/04/27 12:23:36;;;;;;;6.97;2.90;;;12.50;92.50;;;;;;5125265;27;20074;-80
2022/04/27 12:26:06;;;;;;;6.93;3.08;;;12.60;90.80;;;;;;5098562;27;20465;-82
2022/04/27 12:28:44;;;;;;;9.77;3.80;;;12.60;92.30;;;;;;5084349;27;20613;-81
2022/04/27 12:31:10;;;;;;;7.75;3.05;;;12.70;90.20;;;;;;5110242;27;20758;-80
2022/04/27 12:33:43;;;;;;;7.50;3.40;;;12.70;90.70;;;;;;5081801;27;20078;-81
2022/04/27 12:39:00;;;;;;;7.63;3.00;;;12.70;90.40;;;;;;5115604;27;20190;-83
2022/04/27 12:41:34;;;;;;;7.05;3.50;;;12.70;90.60;;;;;;5107292;27;20513;-82
2022/04/27 12:44:07;;;;;;;7.13;3.10;;;12.70;87.70;;;;;;5109525;27;20455;-83
2022/04/27 12:46:34;;;;;;;8.77;4.07;;;12.80;86.00;;;;;;5114823;27;20055;-80
2022/04/27 12:49:02;;;;;;;8.05;3.90;;;12.70;83.10;;;;;;5094433;27;20130;-83
2022/04/27 12:51:30;;;;;;;6.20;2.78;;;12.60;84.80;;;;;;5089059;27;20079;-81
2022/04/27 12:53:57;;;;;;;7.22;2.95;;;12.50;85.90;;;;;;5106338;27;20388;-82
2022/04/27 12:56:34;;;;;;;7.75;2.80;;;12.50;88.20;;;;;;5094064;28;20065;-82
2022/04/27 12:59:05;;;;;;;7.90;3.08;;;12.50;86.80;;;;;;5109778;27;20054;-84
2022/04/27 13:01:31;;;;;;;8.95;2.78;;;12.60;90.30;;;;;;5112855;27;20048;-80
2022/04/27 13:03:59;;;;;;;10.95;3.22;;;12.50;91.60;;;;;;5091722;28;20036;-81
2022/04/27 13:06:25;;;;;;;10.15;2.75;;;12.60;90.70;;;;;;5074386;28;20130;-86